SARF

Formosa International Airport

Airport
ICAO code
SARF
IATA Code
FMA
Summary
ICAO Region
CARSAM
ICAO Territory
Location

Formosa, Formosa

Serving
Formosa
Elevation
193 ft
Coordinates
26° 12' 46" S , 58° 13' 41" W
KCC
Metar
SARF 240000Z 23004KT 3000 DZ OVC005 16/15 Q1014

Airport 5nm south of the city of Formosa, Argentina.

Climatology

Humid Subtropical climate (Köppen climate classification Cfa).

Runways

Designator Length Width Surface Rops
4/22 1800 40 ASP No/No

Airport map

Aerial View

SKYbrary Partners:

Safety knowledge contributed by: